createdAt,value
2019-03-24T00:00:39.994Z,0.00
2019-03-24T00:01:41.329Z,0.00
2019-03-24T00:02:39.962Z,0.00
2019-03-24T00:03:40.070Z,0.00
2019-03-24T00:04:39.933Z,0.00
2019-03-24T00:05:39.928Z,0.00
2019-03-24T00:06:39.923Z,0.00
2019-03-24T00:07:39.914Z,0.00
2019-03-24T00:08:39.889Z,0.00
2019-03-24T00:09:39.995Z,0.00
2019-03-24T00:10:39.869Z,0.00
2019-03-24T00:11:39.875Z,0.00
2019-03-24T00:12:39.848Z,0.00
2019-03-24T00:13:39.846Z,0.00
2019-03-24T00:14:39.828Z,0.00
2019-03-24T00:15:41.217Z,0.00
2019-03-24T00:16:39.811Z,0.00
2019-03-24T00:17:39.798Z,0.00
2019-03-24T00:18:39.792Z,0.00
2019-03-24T00:19:39.934Z,0.00
2019-03-24T00:20:39.793Z,0.00
2019-03-24T00:21:39.929Z,0.00
2019-03-24T00:22:39.753Z,0.00
2019-03-24T00:23:39.740Z,0.00
2019-03-24T00:24:39.711Z,0.00
2019-03-24T00:25:39.794Z,0.00
2019-03-24T00:26:39.785Z,0.00
2019-03-24T00:27:39.791Z,0.00
2019-03-24T00:28:39.678Z,0.00
2019-03-24T00:29:39.658Z,0.00
2019-03-24T00:30:39.660Z,0.00
2019-03-24T00:31:39.756Z,0.00
2019-03-24T00:32:39.624Z,0.00
2019-03-24T00:33:39.633Z,0.00
2019-03-24T00:34:39.618Z,0.00
2019-03-24T00:35:39.590Z,0.00
2019-03-24T00:36:39.667Z,0.00
2019-03-24T00:37:39.734Z,0.00
2019-03-24T00:38:39.559Z,0.00
2019-03-24T00:39:39.573Z,0.00
2019-03-24T00:40:39.533Z,0.00
2019-03-24T00:41:39.528Z,0.00
2019-03-24T00:42:39.634Z,0.00
2019-03-24T00:43:39.518Z,0.00
2019-03-24T00:44:39.499Z,0.00
2019-03-24T00:45:39.491Z,0.00
2019-03-24T00:46:39.464Z,0.00
2019-03-24T00:47:39.568Z,0.00
2019-03-24T00:48:40.184Z,0.00
2019-03-24T00:49:39.462Z,0.00
2019-03-24T00:50:39.438Z,0.00
2019-03-24T00:51:39.431Z,0.00
2019-03-24T00:52:39.408Z,0.00
2019-03-24T00:53:39.492Z,0.00
2019-03-24T00:54:39.423Z,0.00
2019-03-24T00:55:39.480Z,0.00
2019-03-24T00:56:39.578Z,0.00
2019-03-24T00:57:39.376Z,0.00
2019-03-24T00:58:39.352Z,0.00
2019-03-24T00:59:39.338Z,0.00
2019-03-24T01:00:39.320Z,0.00
2019-03-24T01:01:39.530Z,0.00
2019-03-24T01:02:39.304Z,0.00
2019-03-24T01:03:39.275Z,0.00
2019-03-24T01:04:39.272Z,0.00
2019-03-24T01:05:39.434Z,0.00
2019-03-24T01:06:39.255Z,0.00
2019-03-24T01:07:39.243Z,0.00
2019-03-24T01:08:39.251Z,0.00
2019-03-24T01:09:39.259Z,0.00
2019-03-24T01:10:39.335Z,0.00
2019-03-24T01:11:39.292Z,0.00
2019-03-24T01:12:39.215Z,0.00
2019-03-24T01:13:39.184Z,0.00
2019-03-24T01:14:39.163Z,0.00
2019-03-24T01:15:47.314Z,0.00
2019-03-24T01:16:40.149Z,0.00
2019-03-24T01:17:39.233Z,0.00
2019-03-24T01:18:39.122Z,0.00
2019-03-24T01:19:39.117Z,0.00
2019-03-24T01:21:50.577Z,0.00
2019-03-24T01:22:50.075Z,0.00
2019-03-24T01:23:49.856Z,0.00
2019-03-24T01:24:49.847Z,0.00
2019-03-24T01:25:49.842Z,0.00
2019-03-24T01:26:49.911Z,0.00
2019-03-24T01:27:49.894Z,0.00
2019-03-24T01:28:49.894Z,0.00
2019-03-24T01:29:49.795Z,0.00
2019-03-24T01:30:49.784Z,0.00
2019-03-24T01:31:49.786Z,0.00
2019-03-24T01:32:50.011Z,0.00
2019-03-24T01:33:49.843Z,0.00
2019-03-24T01:34:49.746Z,0.00
2019-03-24T01:35:49.766Z,0.00
2019-03-24T01:36:49.718Z,0.00
2019-03-24T01:37:49.915Z,0.00
2019-03-24T01:38:49.706Z,0.00
2019-03-24T01:39:49.694Z,0.00
2019-03-24T01:40:49.682Z,0.00
2019-03-24T01:41:49.691Z,0.00
2019-03-24T01:42:49.672Z,0.00
2019-03-24T01:43:49.734Z,0.00
2019-03-24T01:44:49.723Z,0.00
2019-03-24T01:45:58.177Z,0.00
2019-03-24T01:46:50.617Z,0.00
2019-03-24T01:47:49.603Z,0.00
2019-03-24T01:48:49.593Z,0.00
2019-03-24T01:49:49.589Z,0.00
2019-03-24T01:50:49.702Z,0.00
2019-03-24T01:51:56.091Z,0.00
2019-03-24T01:52:49.560Z,0.00
2019-03-24T01:53:49.564Z,0.00
2019-03-24T01:54:49.551Z,0.00
2019-03-24T01:55:49.600Z,0.00
2019-03-24T01:56:49.496Z,0.00
2019-03-24T01:57:49.495Z,0.00
2019-03-24T01:58:49.486Z,0.00
2019-03-24T01:59:49.478Z,0.00
2019-03-24T02:00:49.465Z,0.00
2019-03-24T02:01:49.580Z,0.00
2019-03-24T02:02:49.434Z,0.00
2019-03-24T02:03:49.426Z,0.00
2019-03-24T02:04:49.449Z,0.00
2019-03-24T02:05:49.417Z,0.00
2019-03-24T02:06:49.393Z,0.00
2019-03-24T02:07:49.514Z,0.00
2019-03-24T02:08:49.376Z,0.00
2019-03-24T02:09:49.369Z,0.00
2019-03-24T02:10:49.349Z,0.00
2019-03-24T02:11:50.867Z,0.00
2019-03-24T02:12:49.338Z,0.00
2019-03-24T02:13:49.405Z,0.00
2019-03-24T02:14:49.304Z,0.00
2019-03-24T02:15:49.370Z,0.00
2019-03-24T02:16:49.298Z,0.00
2019-03-24T02:17:49.285Z,0.00
2019-03-24T02:18:49.344Z,0.00
2019-03-24T02:19:49.244Z,0.00
2019-03-24T02:20:49.279Z,0.00
2019-03-24T02:21:49.242Z,0.00
2019-03-24T02:22:49.347Z,0.00
2019-03-24T02:23:49.254Z,0.00
2019-03-24T02:24:49.306Z,0.00
2019-03-24T02:25:49.222Z,0.00
2019-03-24T02:26:49.238Z,0.00
2019-03-24T02:27:49.195Z,0.00
2019-03-24T02:28:49.358Z,0.00
2019-03-24T02:29:49.272Z,0.00
2019-03-24T02:30:49.153Z,0.00
2019-03-24T02:31:49.117Z,0.00
2019-03-24T02:32:49.131Z,0.00
2019-03-24T02:33:49.118Z,0.00
2019-03-24T02:34:49.341Z,0.00
2019-03-24T02:35:49.329Z,0.00
2019-03-24T02:36:49.077Z,0.00
2019-03-24T02:37:49.082Z,0.00
2019-03-24T02:38:49.235Z,0.00
2019-03-24T02:39:49.070Z,0.00
2019-03-24T02:40:49.097Z,0.00
2019-03-24T02:41:49.073Z,0.00
2019-03-24T02:42:49.041Z,0.00
2019-03-24T02:43:48.993Z,0.00
2019-03-24T02:44:49.088Z,0.00
2019-03-24T02:45:49.003Z,0.00
2019-03-24T02:46:49.005Z,0.00
2019-03-24T02:47:48.967Z,0.00
2019-03-24T02:48:48.934Z,0.00
2019-03-24T02:49:48.930Z,0.00
2019-03-24T02:50:49.118Z,0.00
2019-03-24T02:51:48.917Z,0.00
2019-03-24T02:52:48.909Z,0.00
2019-03-24T02:53:48.925Z,0.00
2019-03-24T02:54:48.890Z,0.00
2019-03-24T02:55:48.931Z,0.00
2019-03-24T02:56:48.866Z,0.00
2019-03-24T02:57:48.845Z,0.00
2019-03-24T02:58:48.863Z,0.00
2019-03-24T02:59:48.814Z,0.00
2019-03-24T03:00:48.815Z,0.00
2019-03-24T03:01:48.869Z,0.00
2019-03-24T03:02:48.881Z,0.00
2019-03-24T03:03:48.797Z,0.00
2019-03-24T03:04:48.770Z,0.00
2019-03-24T03:05:48.752Z,0.00
2019-03-24T03:06:48.754Z,0.00
2019-03-24T03:07:48.733Z,0.00
2019-03-24T03:08:48.805Z,0.00
2019-03-24T03:09:48.718Z,0.00
2019-03-24T03:10:48.693Z,0.00
2019-03-24T03:11:48.696Z,0.00
2019-03-24T03:12:48.684Z,0.00
2019-03-24T03:13:48.778Z,0.00
2019-03-24T03:14:48.661Z,0.00
2019-03-24T03:15:48.644Z,0.00
2019-03-24T03:16:48.662Z,0.00
2019-03-24T03:17:48.648Z,0.00
2019-03-24T03:18:48.615Z,0.00
2019-03-24T03:19:48.747Z,0.00
2019-03-24T03:20:48.594Z,0.00
2019-03-24T03:21:48.585Z,0.00
2019-03-24T03:22:55.114Z,0.00
2019-03-24T03:23:48.668Z,0.00
2019-03-24T03:24:48.565Z,0.00
2019-03-24T03:25:48.603Z,0.00
2019-03-24T03:26:48.607Z,0.00
2019-03-24T03:27:48.511Z,0.00
2019-03-24T03:28:48.502Z,0.00
2019-03-24T03:29:48.573Z,0.00
2019-03-24T03:30:48.603Z,0.00
2019-03-24T03:31:48.470Z,0.00
2019-03-24T03:32:48.473Z,0.00
2019-03-24T03:33:48.469Z,0.00
2019-03-24T03:34:48.456Z,0.00
2019-03-24T03:35:48.476Z,0.00
2019-03-24T03:36:48.738Z,0.00
2019-03-24T03:37:48.429Z,0.00
2019-03-24T03:38:48.394Z,0.00
2019-03-24T03:39:48.498Z,0.00
2019-03-24T03:40:48.380Z,0.00
2019-03-24T03:41:48.444Z,0.00
2019-03-24T03:42:48.360Z,0.00
2019-03-24T03:43:48.351Z,0.00
2019-03-24T03:44:48.327Z,0.00
2019-03-24T03:45:48.322Z,0.00
2019-03-24T03:46:52.760Z,0.00
2019-03-24T03:47:48.449Z,0.00
2019-03-24T03:48:48.287Z,0.00
2019-03-24T03:49:48.318Z,0.00
2019-03-24T03:50:48.276Z,0.00
2019-03-24T03:51:48.271Z,0.00
2019-03-24T03:52:48.347Z,0.00
2019-03-24T03:53:48.227Z,0.00
2019-03-24T03:54:48.215Z,0.00
2019-03-24T03:55:48.207Z,0.00
2019-03-24T03:56:48.204Z,0.00
2019-03-24T03:57:48.199Z,0.00
2019-03-24T03:58:48.246Z,0.00
2019-03-24T03:59:48.165Z,0.00
2019-03-24T04:00:48.168Z,0.00
2019-03-24T04:01:48.229Z,0.00
2019-03-24T04:02:48.165Z,0.00
2019-03-24T04:03:48.131Z,0.00
2019-03-24T04:04:48.186Z,0.00
2019-03-24T04:05:48.113Z,0.00
2019-03-24T04:06:48.104Z,0.00
2019-03-24T04:07:48.506Z,0.00
2019-03-24T04:08:48.077Z,0.00
2019-03-24T04:09:48.126Z,0.00
2019-03-24T04:10:48.038Z,0.00
2019-03-24T04:11:48.034Z,0.00
2019-03-24T04:12:48.125Z,0.00
2019-03-24T04:13:48.102Z,0.00
2019-03-24T04:14:48.025Z,0.00
2019-03-24T04:15:48.003Z,0.00
2019-03-24T04:16:47.989Z,0.00
2019-03-24T04:17:48.051Z,0.00
2019-03-24T04:18:47.973Z,0.00
2019-03-24T04:19:47.964Z,0.00
2019-03-24T04:20:47.942Z,0.00
2019-03-24T04:21:47.971Z,0.00
2019-03-24T04:22:47.986Z,0.00
2019-03-24T04:23:48.056Z,0.00
2019-03-24T04:24:47.905Z,0.00
2019-03-24T04:25:47.925Z,0.00
2019-03-24T04:26:47.986Z,0.00
2019-03-24T04:27:47.856Z,4.00
2019-03-24T04:28:47.941Z,4.00
2019-03-24T04:29:47.840Z,4.00
2019-03-24T04:30:47.830Z,0.00
2019-03-24T04:31:47.830Z,4.00
2019-03-24T04:32:47.798Z,4.00
2019-03-24T04:33:47.794Z,4.00
2019-03-24T04:34:47.849Z,8.00
2019-03-24T04:35:47.770Z,4.00
2019-03-24T04:36:47.792Z,8.00
2019-03-24T04:37:47.750Z,8.00
2019-03-24T04:38:48.010Z,12.00
2019-03-24T04:39:47.725Z,16.00
2019-03-24T04:40:47.919Z,16.00
2019-03-24T04:41:47.721Z,16.00
2019-03-24T04:42:47.701Z,24.00
2019-03-24T04:43:47.683Z,24.00
2019-03-24T04:44:47.675Z,28.00
2019-03-24T04:45:47.658Z,36.00
2019-03-24T04:46:47.736Z,40.00
2019-03-24T04:47:47.652Z,48.00
2019-03-24T04:48:47.846Z,52.00
2019-03-24T04:49:47.618Z,64.00
2019-03-24T04:50:47.618Z,76.00
2019-03-24T04:51:47.587Z,84.00
2019-03-24T04:52:47.594Z,100.00
2019-03-24T04:53:47.701Z,116.00
2019-03-24T04:54:47.577Z,124.00
2019-03-24T04:55:47.551Z,136.00
2019-03-24T04:56:47.549Z,152.00
2019-03-24T04:57:47.529Z,168.00
2019-03-24T04:58:47.530Z,184.00
2019-03-24T04:59:47.611Z,200.00
2019-03-24T05:00:47.500Z,220.00
2019-03-24T05:01:47.524Z,244.00
2019-03-24T05:02:47.475Z,264.00
2019-03-24T05:03:47.473Z,292.00
2019-03-24T05:04:47.472Z,324.00
2019-03-24T05:05:47.571Z,356.00
2019-03-24T05:06:47.559Z,388.00
2019-03-24T05:07:47.429Z,428.00
2019-03-24T05:08:47.420Z,468.00
2019-03-24T05:09:47.401Z,508.00
2019-03-24T05:10:47.439Z,552.00
2019-03-24T05:11:47.413Z,596.00
2019-03-24T05:12:47.549Z,644.00
2019-03-24T05:13:47.446Z,692.00
2019-03-24T05:14:47.350Z,740.00
2019-03-24T05:15:47.336Z,792.00
2019-03-24T05:16:47.329Z,848.00
2019-03-24T05:17:47.323Z,912.00
2019-03-24T05:18:47.372Z,984.00
2019-03-24T05:19:47.291Z,1048.00
2019-03-24T05:20:47.415Z,1104.00
2019-03-24T05:21:47.278Z,1168.00
2019-03-24T05:22:47.259Z,1224.00
2019-03-24T05:23:47.254Z,1296.00
2019-03-24T05:24:47.273Z,1368.00
2019-03-24T05:25:47.269Z,1440.00
2019-03-24T05:26:47.407Z,1524.00
2019-03-24T05:27:47.321Z,1624.00
2019-03-24T05:28:47.229Z,1728.00
2019-03-24T05:29:47.243Z,1828.00
2019-03-24T05:30:47.281Z,1932.00
2019-03-24T05:31:47.441Z,2048.00
2019-03-24T05:32:47.160Z,2180.00
2019-03-24T05:33:47.151Z,2336.00
2019-03-24T05:34:47.159Z,2488.00
2019-03-24T05:35:47.270Z,2600.00
2019-03-24T05:36:47.773Z,2692.00
2019-03-24T05:37:47.096Z,2760.00
2019-03-24T05:38:47.296Z,2828.00
2019-03-24T05:39:47.075Z,2888.00
2019-03-24T05:40:47.121Z,2932.00
2019-03-24T05:41:47.041Z,2956.00
2019-03-24T05:42:47.045Z,2948.00
2019-03-24T05:43:47.037Z,2936.00
2019-03-24T05:44:47.031Z,2956.00
2019-03-24T05:45:47.074Z,2992.00
2019-03-24T05:46:46.992Z,3024.00
2019-03-24T05:47:47.006Z,3020.00
2019-03-24T05:48:47.098Z,2980.00
2019-03-24T05:49:46.973Z,2924.00
2019-03-24T05:50:46.944Z,2876.00
2019-03-24T05:51:46.942Z,2892.00
2019-03-24T05:52:46.932Z,2920.00
2019-03-24T05:53:46.912Z,2964.00
2019-03-24T05:54:47.027Z,3032.00
2019-03-24T05:55:46.909Z,3124.00
2019-03-24T05:56:46.904Z,3220.00
2019-03-24T05:57:46.874Z,3352.00
2019-03-24T05:58:46.963Z,3512.00
2019-03-24T05:59:46.894Z,3676.00
2019-03-24T06:00:46.851Z,3848.00
2019-03-24T06:01:46.841Z,4008.00
2019-03-24T06:02:46.831Z,4216.00
2019-03-24T06:03:46.914Z,4392.00
2019-03-24T06:04:46.794Z,4524.00
2019-03-24T06:05:47.004Z,4596.00
2019-03-24T06:06:46.782Z,4632.00
2019-03-24T06:07:46.776Z,4688.00
2019-03-24T06:08:46.752Z,4844.00
2019-03-24T06:09:46.735Z,5032.00
2019-03-24T06:10:46.763Z,5308.00
2019-03-24T06:11:46.783Z,5632.00
2019-03-24T06:12:46.722Z,6232.00
2019-03-24T06:13:46.702Z,6820.00
2019-03-24T06:14:46.745Z,7232.00
2019-03-24T06:15:46.676Z,7684.00
2019-03-24T06:16:46.740Z,8444.00
2019-03-24T06:17:48.074Z,8720.00
2019-03-24T06:18:46.852Z,8556.00
2019-03-24T06:19:46.640Z,9248.00
2019-03-24T06:20:46.629Z,8712.00
2019-03-24T06:21:46.616Z,8916.00
2019-03-24T06:22:46.612Z,10060.00
2019-03-24T06:23:46.814Z,10220.00
2019-03-24T06:24:46.579Z,10388.00
2019-03-24T06:25:46.708Z,10720.00
2019-03-24T06:26:46.645Z,10836.00
2019-03-24T06:27:46.557Z,10372.00
2019-03-24T06:28:46.540Z,12168.00
2019-03-24T06:29:46.670Z,12968.00
2019-03-24T06:30:46.512Z,13440.00
2019-03-24T06:31:46.610Z,13772.00
2019-03-24T06:32:46.495Z,14112.00
2019-03-24T06:33:46.557Z,15584.00
2019-03-24T06:34:46.478Z,16928.00
2019-03-24T06:35:46.729Z,18176.00
2019-03-24T06:36:46.613Z,19424.00
2019-03-24T06:37:46.430Z,17504.00
2019-03-24T06:38:46.436Z,22560.00
2019-03-24T06:39:46.419Z,29536.00
2019-03-24T06:40:46.423Z,28480.00
2019-03-24T06:41:46.486Z,27712.00
2019-03-24T06:42:46.384Z,28864.00
2019-03-24T06:43:46.375Z,39264.00
2019-03-24T06:44:46.354Z,38496.00
2019-03-24T06:45:46.377Z,46176.00
2019-03-24T06:46:46.424Z,47840.00
2019-03-24T06:47:46.331Z,37248.00
2019-03-24T06:48:46.408Z,36800.00
2019-03-24T06:49:46.312Z,30368.00
2019-03-24T06:50:46.308Z,26496.00
2019-03-24T06:51:46.293Z,23456.00
2019-03-24T06:52:46.312Z,19232.00
2019-03-24T06:53:46.254Z,26592.00
2019-03-24T06:54:46.368Z,26432.00
2019-03-24T06:55:46.240Z,33600.00
2019-03-24T06:56:46.221Z,27584.00
2019-03-24T06:57:46.220Z,22752.00
2019-03-24T06:58:46.391Z,24288.00
2019-03-24T06:59:46.203Z,30176.00
2019-03-24T07:00:46.175Z,21792.00
2019-03-24T07:01:46.199Z,21792.00
2019-03-24T07:02:46.157Z,24256.00
2019-03-24T07:03:46.141Z,33408.00
2019-03-24T07:04:46.293Z,17952.00
2019-03-24T07:05:46.140Z,16992.00
2019-03-24T07:06:46.111Z,16960.00
2019-03-24T07:07:46.109Z,17632.00
2019-03-24T07:08:46.563Z,18880.00
2019-03-24T07:09:46.274Z,18816.00
2019-03-24T07:10:46.068Z,19104.00
2019-03-24T07:11:46.074Z,19904.00
2019-03-24T07:12:46.081Z,16128.00
2019-03-24T07:13:46.044Z,15872.00
2019-03-24T07:14:46.127Z,18080.00
2019-03-24T07:15:46.014Z,16128.00
2019-03-24T07:16:46.008Z,16096.00
2019-03-24T07:17:45.999Z,15612.00
2019-03-24T07:18:45.988Z,15968.00
2019-03-24T07:19:46.092Z,15636.00
2019-03-24T07:20:46.048Z,15128.00
2019-03-24T07:21:45.943Z,15328.00
2019-03-24T07:22:45.977Z,15784.00
2019-03-24T07:23:45.961Z,17152.00
2019-03-24T07:24:46.025Z,16736.00
2019-03-24T07:25:45.913Z,16640.00
2019-03-24T07:26:46.078Z,17792.00
2019-03-24T07:27:45.891Z,19520.00
2019-03-24T07:28:45.885Z,23232.00
2019-03-24T07:29:45.902Z,24704.00
2019-03-24T07:30:45.887Z,26112.00
2019-03-24T07:31:45.864Z,26720.00
2019-03-24T07:32:45.937Z,24832.00
2019-03-24T07:33:45.814Z,25600.00
2019-03-24T07:34:45.819Z,24384.00
2019-03-24T07:35:45.828Z,27744.00
2019-03-24T07:36:45.791Z,26112.00
2019-03-24T07:37:45.769Z,49600.00
2019-03-24T07:38:45.862Z,35488.00
2019-03-24T07:39:45.846Z,24832.00
2019-03-24T07:40:45.773Z,48544.00
2019-03-24T07:41:45.743Z,48960.00
2019-03-24T07:42:45.727Z,24544.00
2019-03-24T07:43:45.796Z,48512.00
2019-03-24T07:44:45.799Z,44160.00
2019-03-24T07:45:45.693Z,37344.00
2019-03-24T07:46:45.692Z,44960.00
2019-03-24T07:47:45.711Z,52992.00
2019-03-24T07:48:45.660Z,46432.00
2019-03-24T07:49:45.826Z,71584.00
2019-03-24T07:50:45.767Z,71008.00
2019-03-24T07:51:45.633Z,75648.00
2019-03-24T07:52:45.642Z,62592.00
2019-03-24T07:53:45.597Z,32096.00
2019-03-24T07:54:45.780Z,61056.00
2019-03-24T07:55:45.758Z,44480.00
2019-03-24T07:56:45.579Z,42464.00
2019-03-24T07:57:45.633Z,28384.00
2019-03-24T07:58:46.077Z,29888.00
2019-03-24T07:59:45.554Z,34112.00
2019-03-24T08:00:45.519Z,41792.00
2019-03-24T08:01:45.529Z,28288.00
2019-03-24T08:02:50.953Z,42816.00
2019-03-24T08:03:46.485Z,44224.00
2019-03-24T08:04:45.670Z,53696.00
2019-03-24T08:05:45.464Z,44032.00
2019-03-24T08:06:45.445Z,40352.00
2019-03-24T08:07:45.434Z,54624.00
2019-03-24T08:08:45.437Z,40832.00
2019-03-24T08:09:45.409Z,41376.00
2019-03-24T08:10:45.529Z,58112.00
2019-03-24T08:11:45.529Z,42944.00
2019-03-24T08:12:45.462Z,42368.00
2019-03-24T08:13:53.672Z,32544.00
2019-03-24T08:14:46.364Z,39616.00
2019-03-24T08:15:45.349Z,30496.00
2019-03-24T08:16:45.509Z,30016.00
2019-03-24T08:17:45.450Z,35200.00
2019-03-24T08:18:45.323Z,40832.00
2019-03-24T08:19:45.315Z,46976.00
2019-03-24T08:20:45.322Z,54176.00
2019-03-24T08:21:45.323Z,43904.00
2019-03-24T08:22:45.421Z,52128.00
2019-03-24T08:23:45.271Z,39168.00
2019-03-24T08:24:45.283Z,50688.00
2019-03-24T08:25:45.303Z,45024.00
2019-03-24T08:26:45.271Z,69696.00
2019-03-24T08:27:45.270Z,42528.00
2019-03-24T08:28:45.469Z,49344.00
2019-03-24T08:29:45.280Z,44992.00
2019-03-24T08:30:45.190Z,46656.00
2019-03-24T08:31:45.209Z,40352.00
2019-03-24T08:32:45.855Z,37952.00
2019-03-24T08:33:45.174Z,42368.00
2019-03-24T08:34:45.173Z,64032.00
2019-03-24T08:35:45.143Z,60896.00
2019-03-24T08:36:45.257Z,45440.00
2019-03-24T08:37:45.116Z,62976.00
2019-03-24T08:38:45.144Z,90528.00
2019-03-24T08:39:45.182Z,61952.00
2019-03-24T08:40:46.078Z,58016.00
2019-03-24T08:41:45.065Z,69696.00
2019-03-24T08:42:45.075Z,90976.00
2019-03-24T08:43:45.172Z,49088.00
2019-03-24T08:44:45.129Z,49088.00
2019-03-24T08:45:45.423Z,47936.00
2019-03-24T08:46:47.093Z,40096.00
2019-03-24T08:47:45.008Z,58432.00
2019-03-24T08:48:45.011Z,52224.00
2019-03-24T08:49:45.019Z,69056.00
2019-03-24T08:50:45.127Z,49600.00
2019-03-24T08:51:44.964Z,60096.00
2019-03-24T08:52:44.944Z,73952.00
2019-03-24T08:53:59.691Z,44224.00
2019-03-24T08:54:44.963Z,31904.00
2019-03-24T08:55:44.987Z,38688.00
2019-03-24T08:56:44.904Z,89056.00
2019-03-24T08:57:44.907Z,36800.00
2019-03-24T08:58:44.895Z,56608.00
2019-03-24T08:59:44.904Z,41696.00
2019-03-24T09:00:44.961Z,44608.00
2019-03-24T09:01:44.886Z,99296.00
2019-03-24T09:02:44.906Z,61408.00
2019-03-24T09:03:44.840Z,47168.00
2019-03-24T09:04:44.826Z,46528.00
2019-03-24T09:05:44.814Z,53440.00
2019-03-24T09:06:44.904Z,43168.00
2019-03-24T09:07:44.911Z,43648.00
2019-03-24T09:08:44.781Z,38752.00
2019-03-24T09:09:44.767Z,77920.00
2019-03-24T09:10:44.760Z,35776.00
2019-03-24T09:11:44.781Z,34016.00
2019-03-24T09:12:44.764Z,38752.00
2019-03-24T09:13:44.823Z,34144.00
2019-03-24T09:14:44.711Z,37504.00
2019-03-24T09:15:44.762Z,35872.00
2019-03-24T09:16:44.700Z,39936.00
2019-03-24T09:17:44.767Z,48608.00
2019-03-24T09:18:52.443Z,37152.00
2019-03-24T09:19:45.660Z,46016.00
2019-03-24T09:20:44.658Z,39168.00
2019-03-24T09:21:44.662Z,48928.00
2019-03-24T09:22:44.768Z,39648.00
2019-03-24T09:23:44.627Z,73536.00
2019-03-24T09:24:44.687Z,49120.00
2019-03-24T09:25:44.611Z,63936.00
2019-03-24T09:26:44.687Z,43904.00
2019-03-24T09:27:44.585Z,57088.00
2019-03-24T09:28:44.653Z,64256.00
2019-03-24T09:29:44.550Z,42944.00
2019-03-24T09:30:44.626Z,91072.00
2019-03-24T09:31:44.532Z,78528.00
2019-03-24T09:32:44.531Z,70816.00
2019-03-24T09:33:44.548Z,98240.00
2019-03-24T09:34:44.525Z,75552.00
2019-03-24T09:35:44.491Z,92416.00
2019-03-24T09:36:44.674Z,74464.00
2019-03-24T09:37:44.738Z,93536.00
2019-03-24T09:38:44.452Z,92128.00
2019-03-24T09:39:44.448Z,95776.00
2019-03-24T09:40:44.823Z,94624.00
2019-03-24T09:41:44.429Z,87040.00
2019-03-24T09:42:44.501Z,88576.00
2019-03-24T09:43:44.430Z,94624.00
2019-03-24T09:44:45.160Z,93440.00
2019-03-24T09:45:44.387Z,94144.00
2019-03-24T09:46:44.364Z,89120.00
2019-03-24T09:47:44.498Z,95104.00
2019-03-24T09:48:44.363Z,91808.00
2019-03-24T09:49:44.340Z,93728.00
2019-03-24T09:50:44.338Z,92800.00
2019-03-24T09:51:44.390Z,96640.00
2019-03-24T09:52:44.323Z,101952.00
2019-03-24T09:53:44.452Z,107552.00
2019-03-24T09:54:44.577Z,106720.00
2019-03-24T09:55:44.286Z,108256.00
2019-03-24T09:56:44.261Z,104192.00
2019-03-24T09:57:44.262Z,105760.00
2019-03-24T09:58:44.343Z,105088.00
2019-03-24T09:59:44.324Z,108064.00
2019-03-24T10:00:44.270Z,104672.00
2019-03-24T10:01:44.437Z,104640.00
2019-03-24T10:02:44.202Z,101824.00
2019-03-24T10:03:44.191Z,100096.00
2019-03-24T10:04:44.384Z,103648.00
2019-03-24T10:05:44.170Z,102304.00
2019-03-24T10:06:44.158Z,102464.00
2019-03-24T10:07:44.155Z,102688.00
2019-03-24T10:08:47.258Z,104224.00
2019-03-24T10:09:44.132Z,105024.00
2019-03-24T10:10:44.439Z,103872.00
2019-03-24T10:11:44.167Z,102560.00
2019-03-24T10:12:44.692Z,98432.00
2019-03-24T10:13:44.251Z,103360.00
2019-03-24T10:14:44.072Z,101216.00
2019-03-24T10:15:52.135Z,101472.00
2019-03-24T10:16:44.735Z,95808.00
2019-03-24T10:17:45.255Z,75296.00
2019-03-24T10:18:44.126Z,67936.00
2019-03-24T10:19:44.041Z,103296.00
2019-03-24T10:20:44.003Z,106208.00
2019-03-24T10:21:43.991Z,106368.00
2019-03-24T10:22:43.985Z,108640.00
2019-03-24T10:23:44.637Z,105760.00
2019-03-24T10:24:44.857Z,104640.00
2019-03-24T10:25:44.014Z,105152.00
2019-03-24T10:26:43.942Z,111136.00
2019-03-24T10:27:43.947Z,65408.00
2019-03-24T10:28:44.027Z,62912.00
2019-03-24T10:29:44.011Z,52128.00
2019-03-24T10:30:43.961Z,111328.00
2019-03-24T10:31:43.910Z,76768.00
2019-03-24T10:32:43.884Z,72320.00
2019-03-24T10:33:43.886Z,69984.00
2019-03-24T10:34:43.979Z,98016.00
2019-03-24T10:35:44.829Z,86368.00
2019-03-24T10:36:43.840Z,91904.00
2019-03-24T10:37:43.842Z,58304.00
2019-03-24T10:38:43.823Z,56512.00
2019-03-24T10:39:43.854Z,101408.00
2019-03-24T10:40:43.919Z,67008.00
2019-03-24T10:41:43.816Z,78912.00
2019-03-24T10:42:43.857Z,113152.00
2019-03-24T10:43:43.771Z,74336.00
2019-03-24T10:44:44.071Z,63712.00
2019-03-24T10:45:43.752Z,61664.00
2019-03-24T10:46:43.755Z,59872.00
2019-03-24T10:47:43.735Z,43360.00
2019-03-24T10:48:43.726Z,46208.00
2019-03-24T10:49:43.764Z,51232.00
2019-03-24T10:50:43.881Z,55712.00
2019-03-24T10:51:43.685Z,48480.00
2019-03-24T10:52:43.705Z,60512.00
2019-03-24T10:53:43.709Z,86560.00
2019-03-24T10:54:43.663Z,52128.00
2019-03-24T10:55:43.646Z,55456.00
2019-03-24T10:56:43.779Z,96256.00
2019-03-24T10:57:43.641Z,73120.00
2019-03-24T10:58:43.623Z,85376.00
2019-03-24T10:59:43.767Z,104256.00
2019-03-24T11:00:43.603Z,103424.00
2019-03-24T11:01:43.587Z,87680.00
2019-03-24T11:02:43.676Z,90560.00
2019-03-24T11:03:43.565Z,101696.00
2019-03-24T11:04:43.573Z,103584.00
2019-03-24T11:05:44.594Z,103648.00
2019-03-24T11:06:43.541Z,100032.00
2019-03-24T11:07:43.522Z,101120.00
2019-03-24T11:08:43.663Z,97664.00
2019-03-24T11:09:45.126Z,95008.00
2019-03-24T11:10:43.502Z,98080.00
2019-03-24T11:11:43.487Z,100032.00
2019-03-24T11:12:43.575Z,103136.00
2019-03-24T11:13:48.358Z,102048.00
2019-03-24T11:14:43.882Z,90816.00
2019-03-24T11:15:43.798Z,38688.00
2019-03-24T11:16:43.441Z,102976.00
2019-03-24T11:17:43.449Z,98400.00
2019-03-24T11:18:43.418Z,76000.00
2019-03-24T11:19:43.552Z,81088.00
2019-03-24T11:20:43.395Z,100576.00
2019-03-24T11:21:43.384Z,101792.00
2019-03-24T11:22:43.379Z,113408.00
2019-03-24T11:23:43.470Z,65248.00
2019-03-24T11:24:43.511Z,68032.00
2019-03-24T11:25:43.356Z,39104.00
2019-03-24T11:26:43.342Z,42816.00
2019-03-24T11:27:43.342Z,49888.00
2019-03-24T11:28:43.328Z,36416.00
2019-03-24T11:29:43.363Z,32672.00
2019-03-24T11:30:43.449Z,30720.00
2019-03-24T11:31:43.369Z,31616.00
2019-03-24T11:32:43.289Z,35360.00
2019-03-24T11:33:43.333Z,45344.00
2019-03-24T11:34:43.307Z,46016.00
2019-03-24T11:35:43.302Z,45440.00
2019-03-24T11:36:43.423Z,44736.00
2019-03-24T11:37:43.215Z,95200.00
2019-03-24T11:38:43.213Z,56576.00
2019-03-24T11:39:43.242Z,72160.00
2019-03-24T11:40:43.393Z,105952.00
2019-03-24T11:41:43.191Z,108064.00
2019-03-24T11:42:43.162Z,105696.00
2019-03-24T11:43:43.315Z,102848.00
2019-03-24T11:44:43.169Z,103552.00
2019-03-24T11:45:43.148Z,99040.00
2019-03-24T11:46:43.132Z,101088.00
2019-03-24T11:47:43.249Z,101568.00
2019-03-24T11:48:43.240Z,100288.00
2019-03-24T11:49:46.194Z,101600.00
2019-03-24T11:50:43.086Z,100096.00
2019-03-24T11:51:43.082Z,94944.00
2019-03-24T11:52:43.059Z,95520.00
2019-03-24T11:53:43.138Z,95520.00
2019-03-24T11:54:43.046Z,104320.00
2019-03-24T11:55:43.030Z,103584.00
2019-03-24T11:56:43.033Z,112096.00
2019-03-24T11:57:43.022Z,113568.00
2019-03-24T11:58:43.175Z,103296.00
2019-03-24T11:59:43.083Z,45664.00
2019-03-24T12:00:42.981Z,45472.00
2019-03-24T12:01:42.992Z,45696.00
2019-03-24T12:02:43.476Z,54784.00
2019-03-24T12:03:42.978Z,81440.00
2019-03-24T12:04:43.049Z,48960.00
2019-03-24T12:05:43.128Z,39776.00
2019-03-24T12:06:42.930Z,40192.00
2019-03-24T12:07:43.021Z,97056.00
2019-03-24T12:08:42.930Z,63264.00
2019-03-24T12:09:42.899Z,56288.00
2019-03-24T12:10:42.951Z,40288.00
2019-03-24T12:11:42.897Z,87168.00
2019-03-24T12:12:42.850Z,56992.00
2019-03-24T12:13:42.951Z,54336.00
2019-03-24T12:14:42.844Z,37856.00
2019-03-24T12:15:42.950Z,37504.00
2019-03-24T12:16:42.840Z,45952.00
2019-03-24T12:17:42.802Z,39040.00
2019-03-24T12:18:43.039Z,41440.00
2019-03-24T12:19:42.785Z,51456.00
2019-03-24T12:20:42.785Z,74720.00